createdAt,value
2017-12-30T00:01:28.943Z,5.15
2017-12-30T00:03:56.461Z,5.20
2017-12-30T00:06:24.761Z,4.90
2017-12-30T00:08:52.267Z,5.35
2017-12-30T00:11:19.799Z,6.28
2017-12-30T00:13:47.341Z,5.50
2017-12-30T00:16:14.858Z,5.37
2017-12-30T00:18:43.153Z,5.20
2017-12-30T00:21:10.702Z,4.22
2017-12-30T00:23:39.018Z,5.53
2017-12-30T00:26:06.531Z,8.95
2017-12-30T00:28:34.148Z,5.10
2017-12-30T00:31:01.659Z,5.90
2017-12-30T00:33:29.255Z,9.43
2017-12-30T00:35:56.825Z,7.10
2017-12-30T00:38:24.388Z,6.37
2017-12-30T00:40:51.897Z,5.32
2017-12-30T00:43:19.419Z,6.07
2017-12-30T00:45:46.957Z,5.50
2017-12-30T00:48:14.493Z,6.30
2017-12-30T00:50:42.793Z,5.65
2017-12-30T00:53:10.361Z,7.00
2017-12-30T00:55:37.873Z,7.78
2017-12-30T00:58:05.488Z,5.90
2017-12-30T01:00:33.014Z,5.80
2017-12-30T01:03:01.316Z,6.40
2017-12-30T01:05:28.880Z,7.97
2017-12-30T01:07:56.430Z,8.48
2017-12-30T01:10:23.992Z,6.50
2017-12-30T01:12:51.561Z,7.18
2017-12-30T01:15:19.072Z,10.68
2017-12-30T01:17:46.592Z,10.43
2017-12-30T01:20:14.137Z,8.70
2017-12-30T01:22:41.660Z,7.97
2017-12-30T01:25:09.253Z,7.43
2017-12-30T01:27:36.815Z,8.00
2017-12-30T01:30:04.340Z,6.93
2017-12-30T01:32:31.846Z,8.30
2017-12-30T01:34:59.372Z,7.75
2017-12-30T01:37:27.667Z,10.43
2017-12-30T01:39:55.197Z,10.10
2017-12-30T01:42:22.804Z,8.32
2017-12-30T01:44:50.344Z,8.27
2017-12-30T01:47:17.863Z,10.23
2017-12-30T01:49:45.476Z,7.90
2017-12-30T01:52:13.040Z,9.48
2017-12-30T01:54:40.600Z,9.52
2017-12-30T01:57:08.261Z,9.90
2017-12-30T01:59:35.826Z,12.80
2017-12-30T02:02:03.704Z,12.70
2017-12-30T02:04:31.268Z,9.45
2017-12-30T02:06:58.795Z,11.18
2017-12-30T02:09:27.089Z,12.35
2017-12-30T02:11:54.620Z,10.07
2017-12-30T02:14:22.917Z,13.02
2017-12-30T02:16:50.453Z,9.53
2017-12-30T02:19:17.964Z,10.33
2017-12-30T02:21:45.511Z,15.98
2017-12-30T02:24:13.170Z,13.77
2017-12-30T02:26:40.701Z,14.18
2017-12-30T02:29:08.980Z,11.25
2017-12-30T02:31:37.283Z,12.50
2017-12-30T02:34:04.798Z,12.50
2017-12-30T02:36:32.414Z,11.70
2017-12-30T02:38:59.960Z,14.40
2017-12-30T02:41:27.477Z,13.20
2017-12-30T02:43:55.017Z,13.07
2017-12-30T02:46:22.547Z,14.85
2017-12-30T02:48:50.146Z,17.08
2017-12-30T02:51:17.660Z,14.63
2017-12-30T02:53:45.235Z,13.95
2017-12-30T02:56:12.740Z,14.85
2017-12-30T02:58:40.280Z,14.30
2017-12-30T03:01:07.833Z,14.50
2017-12-30T03:03:35.369Z,13.27
2017-12-30T03:06:02.933Z,12.90
2017-12-30T03:08:30.456Z,16.43
2017-12-30T03:10:58.778Z,19.17
2017-12-30T03:13:26.303Z,10.40
2017-12-30T03:15:54.584Z,12.73
2017-12-30T03:18:22.985Z,16.73
2017-12-30T03:20:50.500Z,15.13
2017-12-30T03:23:18.113Z,14.00
2017-12-30T03:25:45.641Z,19.52
2017-12-30T03:28:14.050Z,15.63
2017-12-30T03:30:41.612Z,17.65
2017-12-30T03:33:09.120Z,15.23
2017-12-30T03:35:36.733Z,19.83
2017-12-30T03:38:04.292Z,24.60
2017-12-30T03:40:31.819Z,15.63
2017-12-30T03:42:59.337Z,20.63
2017-12-30T03:45:26.992Z,19.37
2017-12-30T03:47:54.532Z,14.40
2017-12-30T03:50:22.099Z,14.77
2017-12-30T03:52:49.610Z,13.37
2017-12-30T03:55:17.153Z,14.68
2017-12-30T03:57:44.662Z,13.63
2017-12-30T04:00:12.965Z,15.27
2017-12-30T04:02:40.468Z,14.60
2017-12-30T04:05:08.081Z,12.97
2017-12-30T04:07:35.592Z,15.75
2017-12-30T04:10:03.121Z,19.77
2017-12-30T04:12:30.652Z,17.03
2017-12-30T04:14:58.180Z,15.80
2017-12-30T04:17:25.695Z,14.23
2017-12-30T04:19:53.340Z,12.35
2017-12-30T04:22:20.853Z,18.10
2017-12-30T04:24:48.360Z,12.17
2017-12-30T04:27:15.915Z,12.83
2017-12-30T04:29:43.433Z,19.07
2017-12-30T04:32:10.954Z,15.53
2017-12-30T04:34:38.476Z,16.10
2017-12-30T04:37:06.878Z,12.80
2017-12-30T04:39:34.437Z,19.60
2017-12-30T04:42:01.996Z,11.07
2017-12-30T04:44:29.553Z,14.50
2017-12-30T04:46:57.077Z,11.57
2017-12-30T04:49:24.594Z,16.47
2017-12-30T04:51:52.124Z,14.13
2017-12-30T04:54:20.430Z,13.13
2017-12-30T04:56:47.978Z,19.30
2017-12-30T04:59:15.541Z,17.07
2017-12-30T05:01:43.076Z,11.93
2017-12-30T05:04:11.347Z,14.53
2017-12-30T05:06:39.758Z,14.00
2017-12-30T05:09:07.312Z,15.17
2017-12-30T05:11:34.818Z,12.43
2017-12-30T05:14:02.436Z,14.97
2017-12-30T05:16:29.957Z,14.23
2017-12-30T05:18:57.555Z,13.43
2017-12-30T05:21:25.065Z,13.77
2017-12-30T05:23:52.651Z,13.60
2017-12-30T05:26:20.184Z,11.47
2017-12-30T05:28:47.708Z,12.50
2017-12-30T05:31:15.254Z,19.40
2017-12-30T05:33:42.776Z,10.97
2017-12-30T05:36:10.377Z,8.93
2017-12-30T05:38:37.940Z,17.70
2017-12-30T05:41:05.459Z,12.73
2017-12-30T05:43:32.987Z,12.53
2017-12-30T05:46:00.515Z,13.30
2017-12-30T05:48:28.072Z,10.33
2017-12-30T05:50:56.344Z,15.43
2017-12-30T05:53:24.630Z,13.77
2017-12-30T05:55:52.203Z,14.93
2017-12-30T05:58:19.763Z,19.57
2017-12-30T06:00:47.302Z,15.30
2017-12-30T06:03:15.582Z,15.23
2017-12-30T06:05:43.152Z,10.75
2017-12-30T06:08:10.758Z,13.40
2017-12-30T06:10:38.288Z,14.07
2017-12-30T06:13:05.799Z,9.50
2017-12-30T06:15:33.399Z,12.80
2017-12-30T06:18:00.967Z,12.93
2017-12-30T06:20:28.530Z,14.23
2017-12-30T06:22:56.045Z,9.07
2017-12-30T06:25:23.652Z,12.47
2017-12-30T06:27:51.159Z,14.80
2017-12-30T06:30:18.760Z,16.33
2017-12-30T06:32:46.327Z,19.80
2017-12-30T06:35:13.885Z,11.53
2017-12-30T06:37:41.421Z,8.43
2017-12-30T06:40:09.721Z,19.70
2017-12-30T06:42:37.245Z,10.90
2017-12-30T06:45:04.756Z,13.40
2017-12-30T06:47:32.280Z,16.63
2017-12-30T06:50:00.606Z,12.67
2017-12-30T06:52:28.140Z,20.52
2017-12-30T06:54:55.698Z,11.40
2017-12-30T06:57:23.318Z,8.50
2017-12-30T06:59:50.837Z,12.30
2017-12-30T07:02:18.377Z,13.25
2017-12-30T07:04:45.945Z,14.87
2017-12-30T07:07:13.494Z,12.98
2017-12-30T07:09:41.067Z,10.80
2017-12-30T07:12:08.580Z,13.32
2017-12-30T07:14:36.119Z,12.48
2017-12-30T07:17:03.656Z,16.48
2017-12-30T07:19:31.191Z,15.80
2017-12-30T07:21:59.488Z,6.70
2017-12-30T07:24:27.014Z,11.70
2017-12-30T07:26:55.306Z,19.83
2017-12-30T07:29:22.884Z,9.45
2017-12-30T07:31:50.396Z,10.57
2017-12-30T07:34:17.936Z,9.20
2017-12-30T07:36:45.464Z,10.53
2017-12-30T07:39:12.992Z,12.50
2017-12-30T07:41:41.297Z,12.50
2017-12-30T07:44:08.863Z,9.90
2017-12-30T07:46:36.424Z,10.70
2017-12-30T07:49:04.042Z,10.03
2017-12-30T07:51:31.551Z,12.67
2017-12-30T07:53:59.061Z,7.12
2017-12-30T07:56:26.658Z,7.40
2017-12-30T07:58:54.177Z,13.03
2017-12-30T08:01:21.720Z,5.35
2017-12-30T08:03:49.229Z,7.63
2017-12-30T08:06:16.802Z,7.68
2017-12-30T08:08:44.326Z,9.20
2017-12-30T08:11:12.654Z,12.07
2017-12-30T08:13:40.173Z,16.52
2017-12-30T08:16:08.462Z,8.53
2017-12-30T08:18:36.741Z,7.87
2017-12-30T08:21:05.139Z,16.10
2017-12-30T08:23:32.700Z,11.20
2017-12-30T08:26:00.259Z,22.80
2017-12-30T08:28:27.775Z,11.90
2017-12-30T08:30:55.382Z,7.90
2017-12-30T08:33:22.892Z,15.95
2017-12-30T08:35:50.424Z,16.05
2017-12-30T08:38:17.936Z,10.18
2017-12-30T08:40:46.229Z,14.40
2017-12-30T08:43:13.765Z,12.80
2017-12-30T08:45:41.308Z,9.07
2017-12-30T08:48:08.916Z,5.93
2017-12-30T08:50:36.487Z,11.13
2017-12-30T08:53:04.037Z,11.82
2017-12-30T08:55:31.560Z,6.57
2017-12-30T08:57:59.173Z,12.25
2017-12-30T09:00:26.700Z,8.73
2017-12-30T09:02:55.024Z,7.37
2017-12-30T09:05:22.554Z,10.05
2017-12-30T09:07:50.068Z,7.10
2017-12-30T09:10:17.577Z,6.40
2017-12-30T09:12:45.135Z,10.37
2017-12-30T09:15:12.704Z,8.80
2017-12-30T09:17:40.269Z,15.43
2017-12-30T09:20:07.830Z,13.43
2017-12-30T09:22:35.389Z,13.33
2017-12-30T09:25:02.912Z,12.55
2017-12-30T09:27:31.199Z,9.33
2017-12-30T09:29:59.477Z,16.30
2017-12-30T09:32:28.504Z,9.30
2017-12-30T09:34:56.057Z,10.73
2017-12-30T09:37:23.576Z,10.23
2017-12-30T09:39:51.874Z,9.18
2017-12-30T09:42:20.286Z,5.00
2017-12-30T09:44:48.749Z,12.80
2017-12-30T09:47:16.321Z,11.37
2017-12-30T09:49:43.964Z,6.45
2017-12-30T09:52:12.357Z,16.25
2017-12-30T09:54:39.895Z,6.40
2017-12-30T09:57:08.433Z,4.67
2017-12-30T09:59:36.056Z,9.57
2017-12-30T10:02:03.615Z,5.57
2017-12-30T10:04:31.326Z,8.10
2017-12-30T10:06:58.972Z,7.78
2017-12-30T10:09:26.547Z,16.70
2017-12-30T10:11:54.169Z,12.90
2017-12-30T10:14:21.706Z,6.12
2017-12-30T10:16:49.997Z,9.02
2017-12-30T10:19:17.530Z,11.48
2017-12-30T10:21:45.144Z,17.40
2017-12-30T10:24:12.710Z,7.35
2017-12-30T10:26:40.248Z,5.20
2017-12-30T10:29:07.821Z,8.37
2017-12-30T10:31:35.480Z,12.83
2017-12-30T10:34:03.031Z,10.70
2017-12-30T10:36:30.561Z,5.30
2017-12-30T10:38:58.864Z,6.87
2017-12-30T10:41:26.388Z,6.15
2017-12-30T10:43:54.001Z,5.63
2017-12-30T10:46:21.531Z,5.50
2017-12-30T10:48:49.846Z,7.32
2017-12-30T10:51:17.488Z,9.48
2017-12-30T10:53:46.302Z,4.30
2017-12-30T10:56:13.952Z,6.30
2017-12-30T10:58:41.466Z,11.73
2017-12-30T11:01:09.000Z,4.35
2017-12-30T11:03:36.588Z,3.93
2017-12-30T11:06:04.897Z,9.23
2017-12-30T11:08:32.476Z,4.90
2017-12-30T11:11:00.005Z,5.20
2017-12-30T11:13:28.312Z,4.07
2017-12-30T11:15:55.840Z,4.90
2017-12-30T11:18:23.345Z,7.13
2017-12-30T11:20:50.890Z,4.43
2017-12-30T11:23:18.399Z,3.10
2017-12-30T11:25:46.008Z,4.67
2017-12-30T11:28:13.509Z,7.13
2017-12-30T11:30:41.057Z,7.33
2017-12-30T11:33:08.585Z,2.57
2017-12-30T11:35:36.090Z,5.13
2017-12-30T11:38:03.724Z,5.43
2017-12-30T11:40:31.235Z,3.25
2017-12-30T11:42:58.844Z,5.72
2017-12-30T11:45:26.392Z,3.60
2017-12-30T11:47:53.910Z,4.60
2017-12-30T11:50:21.513Z,2.92
2017-12-30T11:52:49.041Z,4.70
2017-12-30T11:55:17.323Z,3.08
2017-12-30T11:57:45.620Z,3.08
2017-12-30T12:00:13.132Z,3.05
2017-12-30T12:02:40.765Z,3.97
2017-12-30T12:05:08.311Z,3.15
2017-12-30T12:07:35.842Z,2.47
2017-12-30T12:10:04.147Z,3.10
2017-12-30T12:12:32.411Z,2.57
2017-12-30T12:15:00.681Z,2.93
2017-12-30T12:17:29.914Z,4.90
2017-12-30T12:19:57.445Z,1.85
2017-12-30T12:22:25.857Z,1.97
2017-12-30T12:24:53.509Z,2.17
2017-12-30T12:27:21.030Z,2.47
2017-12-30T12:29:48.562Z,4.37
2017-12-30T12:32:16.185Z,2.50
2017-12-30T12:34:43.698Z,1.57
2017-12-30T12:37:11.204Z,1.80
2017-12-30T12:39:38.771Z,2.40
2017-12-30T12:42:06.289Z,1.87
2017-12-30T12:44:33.883Z,2.47
2017-12-30T12:47:01.398Z,3.30
2017-12-30T12:49:29.014Z,1.50
2017-12-30T12:51:56.523Z,1.33
2017-12-30T12:54:24.040Z,2.77
2017-12-30T12:56:51.543Z,1.40
2017-12-30T12:59:19.067Z,1.53
2017-12-30T13:01:46.622Z,1.40
2017-12-30T13:04:14.149Z,1.90
2017-12-30T13:06:42.445Z,1.40
2017-12-30T13:09:10.020Z,1.37
2017-12-30T13:11:38.313Z,1.40
2017-12-30T13:14:05.839Z,1.20
2017-12-30T13:16:33.346Z,1.40
2017-12-30T13:19:00.874Z,1.30
2017-12-30T13:21:28.377Z,1.40
2017-12-30T13:23:55.920Z,1.50
2017-12-30T13:26:23.451Z,1.50
2017-12-30T13:28:50.961Z,1.30
2017-12-30T13:31:18.480Z,1.43
2017-12-30T13:33:46.254Z,1.77
2017-12-30T13:36:14.616Z,1.40
2017-12-30T13:38:42.126Z,1.40
2017-12-30T13:41:09.732Z,3.83
2017-12-30T13:43:37.357Z,1.90
2017-12-30T13:46:04.957Z,1.57
2017-12-30T13:48:32.473Z,2.07
2017-12-30T13:50:59.993Z,1.70
2017-12-30T13:53:27.537Z,2.10
2017-12-30T13:55:55.065Z,1.90
2017-12-30T13:58:22.591Z,1.80
2017-12-30T14:00:50.110Z,2.13
2017-12-30T14:03:17.632Z,3.30
2017-12-30T14:05:45.245Z,2.30
2017-12-30T14:08:12.800Z,3.00
2017-12-30T14:10:40.369Z,2.53
2017-12-30T14:13:07.907Z,2.43
2017-12-30T14:15:35.442Z,2.00
2017-12-30T14:18:03.822Z,3.03
2017-12-30T14:20:31.640Z,3.20
2017-12-30T14:22:59.197Z,2.50
2017-12-30T14:25:26.859Z,3.37
2017-12-30T14:27:54.393Z,2.60
2017-12-30T14:30:22.699Z,3.57
2017-12-30T14:32:50.231Z,13.63
2017-12-30T14:35:18.524Z,3.40
2017-12-30T14:37:46.093Z,3.23
2017-12-30T14:40:13.648Z,3.40
2017-12-30T14:42:41.198Z,2.77
2017-12-30T14:45:09.463Z,5.53
2017-12-30T14:47:37.759Z,4.90
2017-12-30T14:50:05.320Z,4.63
2017-12-30T14:52:32.887Z,4.10
2017-12-30T14:55:00.393Z,7.70
2017-12-30T14:57:28.001Z,6.70
2017-12-30T14:59:55.513Z,10.73
2017-12-30T15:02:23.028Z,4.13
2017-12-30T15:04:50.542Z,4.87
2017-12-30T15:07:18.145Z,6.10
2017-12-30T15:09:45.715Z,7.90
2017-12-30T15:12:13.245Z,9.37
2017-12-30T15:14:41.524Z,7.13
2017-12-30T15:17:09.824Z,10.40
2017-12-30T15:19:37.348Z,14.10
2017-12-30T15:22:04.880Z,14.93
2017-12-30T15:24:32.412Z,18.90
2017-12-30T15:27:00.793Z,13.50
2017-12-30T15:29:28.341Z,25.43
2017-12-30T15:31:55.914Z,20.30
2017-12-30T15:34:23.435Z,20.67
2017-12-30T15:36:51.768Z,24.17
2017-12-30T15:39:19.406Z,27.67
2017-12-30T15:41:46.929Z,23.63
2017-12-30T15:44:14.535Z,28.33
2017-12-30T15:46:42.091Z,23.10
2017-12-30T15:49:09.617Z,21.57
2017-12-30T15:51:37.929Z,20.37
2017-12-30T15:54:05.460Z,22.00
2017-12-30T15:56:33.730Z,22.90
2017-12-30T15:59:01.247Z,33.30
2017-12-30T16:01:28.786Z,29.90
2017-12-30T16:03:56.347Z,22.07
2017-12-30T16:06:23.900Z,24.70
2017-12-30T16:08:51.461Z,26.23
2017-12-30T16:11:18.991Z,29.90
2017-12-30T16:13:47.289Z,41.90
2017-12-30T16:16:14.832Z,22.00
2017-12-30T16:18:43.125Z,24.33
2017-12-30T16:21:11.418Z,25.97
2017-12-30T16:23:38.942Z,26.13
2017-12-30T16:26:06.536Z,33.37
2017-12-30T16:28:34.058Z,29.30
2017-12-30T16:31:01.684Z,29.33
2017-12-30T16:33:29.200Z,22.50
2017-12-30T16:35:57.598Z,22.73
2017-12-30T16:38:25.114Z,24.97
2017-12-30T16:40:52.722Z,24.57
2017-12-30T16:43:21.116Z,26.53
2017-12-30T16:45:48.667Z,20.87
2017-12-30T16:48:16.237Z,25.13
2017-12-30T16:50:43.834Z,32.83
2017-12-30T16:53:11.341Z,32.47
2017-12-30T16:55:38.856Z,33.13
2017-12-30T16:58:06.465Z,26.07
2017-12-30T17:00:34.041Z,27.43
2017-12-30T17:03:01.573Z,27.03
2017-12-30T17:05:29.847Z,31.40
2017-12-30T17:07:58.135Z,27.27
2017-12-30T17:10:25.649Z,32.57
2017-12-30T17:12:53.185Z,34.03
2017-12-30T17:15:20.732Z,19.23
2017-12-30T17:17:48.267Z,28.23
2017-12-30T17:20:16.569Z,32.70
2017-12-30T17:22:44.103Z,21.73
2017-12-30T17:25:12.388Z,23.43
2017-12-30T17:27:40.682Z,21.47
2017-12-30T17:30:08.242Z,24.73
2017-12-30T17:32:35.772Z,24.40
2017-12-30T17:35:04.052Z,33.13
2017-12-30T17:37:31.642Z,31.97
2017-12-30T17:39:59.203Z,18.40
2017-12-30T17:42:26.714Z,23.97
2017-12-30T17:44:54.315Z,18.37
2017-12-30T17:47:21.832Z,20.73
2017-12-30T17:49:49.374Z,18.50
2017-12-30T17:52:16.892Z,27.53
2017-12-30T17:54:44.428Z,34.07
2017-12-30T17:57:11.935Z,22.73
2017-12-30T17:59:39.496Z,14.77
2017-12-30T18:02:07.056Z,25.43
2017-12-30T18:04:34.606Z,23.37
2017-12-30T18:07:02.161Z,20.20
2017-12-30T18:09:29.688Z,27.07
2017-12-30T18:11:57.204Z,26.37
2017-12-30T18:14:24.729Z,37.90
2017-12-30T18:16:52.246Z,12.00
2017-12-30T18:19:19.782Z,18.40
2017-12-30T18:21:47.363Z,16.30
2017-12-30T18:24:14.991Z,17.37
2017-12-30T18:26:42.585Z,15.90
2017-12-30T18:29:10.129Z,16.30
2017-12-30T18:31:37.651Z,11.00
2017-12-30T18:34:05.951Z,16.33
2017-12-30T18:36:33.479Z,16.30
2017-12-30T18:39:01.773Z,9.00
2017-12-30T18:41:29.311Z,22.23
2017-12-30T18:43:57.602Z,13.03
2017-12-30T18:46:25.897Z,16.27
2017-12-30T18:48:53.429Z,12.33
2017-12-30T18:51:21.003Z,19.97
2017-12-30T18:53:49.567Z,22.67
2017-12-30T18:56:17.489Z,15.03
2017-12-30T18:58:45.866Z,16.37
2017-12-30T19:01:13.734Z,12.40
2017-12-30T19:03:42.751Z,25.97
2017-12-30T19:06:10.813Z,14.57
2017-12-30T19:08:40.616Z,20.47
2017-12-30T19:11:08.455Z,24.30
2017-12-30T19:13:36.453Z,17.17
2017-12-30T19:16:04.735Z,15.50
2017-12-30T19:18:32.582Z,28.10
2017-12-30T19:21:00.573Z,20.77
2017-12-30T19:23:28.124Z,19.20
2017-12-30T19:25:55.998Z,30.77
2017-12-30T19:28:23.967Z,24.40
2017-12-30T19:30:52.041Z,21.80
2017-12-30T19:33:19.633Z,22.17
2017-12-30T19:35:47.266Z,21.87
2017-12-30T19:38:15.016Z,24.07
2017-12-30T19:40:42.579Z,18.90
2017-12-30T19:43:10.505Z,25.43
2017-12-30T19:45:38.340Z,34.17
2017-12-30T19:48:06.137Z,26.63
2017-12-30T19:50:33.800Z,22.13
2017-12-30T19:53:01.445Z,30.83
2017-12-30T19:55:29.319Z,21.03
2017-12-30T19:57:56.899Z,23.97
2017-12-30T20:00:24.591Z,25.40
2017-12-30T20:02:52.804Z,25.23
2017-12-30T20:05:20.453Z,17.50
2017-12-30T20:07:48.466Z,27.80
2017-12-30T20:10:16.189Z,26.90
2017-12-30T20:12:44.158Z,23.43
2017-12-30T20:15:12.336Z,28.70
2017-12-30T20:17:40.376Z,26.33
2017-12-30T20:20:08.478Z,27.37
2017-12-30T20:22:36.550Z,22.07
2017-12-30T20:25:04.841Z,25.43
2017-12-30T20:27:32.456Z,24.97
2017-12-30T20:30:01.498Z,22.73
2017-12-30T20:32:29.908Z,21.20
2017-12-30T20:34:57.837Z,28.87
2017-12-30T20:37:25.443Z,30.53
2017-12-30T20:39:53.350Z,26.10
2017-12-30T20:42:21.747Z,19.03
2017-12-30T20:44:49.924Z,20.73
2017-12-30T20:47:17.472Z,22.60
2017-12-30T20:49:45.023Z,36.83
2017-12-30T20:52:12.543Z,28.53
2017-12-30T20:54:40.093Z,19.10
2017-12-30T20:57:07.615Z,20.10
2017-12-30T20:59:35.180Z,21.80
2017-12-30T21:02:02.696Z,26.83
2017-12-30T21:04:30.235Z,28.77
2017-12-30T21:06:57.874Z,23.00
2017-12-30T21:09:25.431Z,31.50
2017-12-30T21:11:52.948Z,18.00
2017-12-30T21:14:21.252Z,23.50
2017-12-30T21:16:48.789Z,18.80
2017-12-30T21:19:17.103Z,17.33
2017-12-30T21:21:44.631Z,16.20
2017-12-30T21:24:12.945Z,10.50
2017-12-30T21:26:40.452Z,12.90
2017-12-30T21:29:08.081Z,7.57
2017-12-30T21:31:35.597Z,13.60
2017-12-30T21:34:04.004Z,10.17
2017-12-30T21:36:31.557Z,11.93
2017-12-30T21:38:59.122Z,11.07
2017-12-30T21:41:26.683Z,10.10
2017-12-30T21:43:54.192Z,6.47
2017-12-30T21:46:21.724Z,13.27
2017-12-30T21:48:49.227Z,6.50
2017-12-30T21:51:17.537Z,10.87
2017-12-30T21:53:45.039Z,9.00
2017-12-30T21:56:12.663Z,9.23
2017-12-30T21:58:40.178Z,10.47
2017-12-30T22:01:07.714Z,13.03
2017-12-30T22:03:35.230Z,15.07
2017-12-30T22:06:02.799Z,12.37
2017-12-30T22:08:30.352Z,9.20
2017-12-30T22:10:57.897Z,13.90
2017-12-30T22:13:26.185Z,12.87
2017-12-30T22:15:53.759Z,15.80
2017-12-30T22:18:21.282Z,15.53
2017-12-30T22:20:48.817Z,16.77
2017-12-30T22:23:16.330Z,17.70
2017-12-30T22:25:43.895Z,13.67
2017-12-30T22:28:11.463Z,17.30
2017-12-30T22:30:39.015Z,13.00
2017-12-30T22:33:06.531Z,19.00
2017-12-30T22:35:34.134Z,23.80
2017-12-30T22:38:01.709Z,20.70
2017-12-30T22:40:29.236Z,19.93
2017-12-30T22:42:57.509Z,22.47
2017-12-30T22:45:25.806Z,21.07
2017-12-30T22:47:53.382Z,21.93
2017-12-30T22:50:20.912Z,19.20
2017-12-30T22:52:49.228Z,23.03
2017-12-30T22:55:16.766Z,20.97
2017-12-30T22:57:44.275Z,29.20
2017-12-30T23:00:11.805Z,20.93
2017-12-30T23:02:39.354Z,20.00
2017-12-30T23:05:06.871Z,23.57
2017-12-30T23:07:34.412Z,18.97
2017-12-30T23:10:01.927Z,16.07
2017-12-30T23:12:29.502Z,23.77
2017-12-30T23:14:57.021Z,28.03
2017-12-30T23:17:24.596Z,25.90
2017-12-30T23:19:52.922Z,29.37
2017-12-30T23:22:20.460Z,26.13
2017-12-30T23:24:48.026Z,19.57
2017-12-30T23:27:15.562Z,23.27
2017-12-30T23:29:56.656Z,17.73
2017-12-30T23:32:24.190Z,23.33
2017-12-30T23:34:52.470Z,26.60
2017-12-30T23:37:20.772Z,30.33
2017-12-30T23:39:48.287Z,26.70
2017-12-30T23:42:15.815Z,24.50
2017-12-30T23:44:43.330Z,22.73
2017-12-30T23:47:10.875Z,21.73
2017-12-30T23:49:38.455Z,27.67
2017-12-30T23:52:06.773Z,24.40
2017-12-30T23:54:34.316Z,15.87
2017-12-30T23:57:01.872Z,26.37
2017-12-30T23:59:29.379Z,16.57
